createdAt,value
2019-03-21T00:01:15.081Z,20.00
2019-03-21T00:03:47.993Z,19.12
2019-03-21T00:06:18.567Z,18.50
2019-03-21T00:08:48.916Z,22.10
2019-03-21T00:11:55.076Z,23.90
2019-03-21T00:14:51.054Z,22.50
2019-03-21T00:17:30.493Z,23.62
2019-03-21T00:20:00.676Z,19.60
2019-03-21T00:22:31.029Z,19.62
2019-03-21T00:25:02.423Z,21.60
2019-03-21T00:27:33.073Z,20.97
2019-03-21T00:30:05.140Z,19.42
2019-03-21T00:32:35.379Z,22.40
2019-03-21T00:35:08.408Z,17.87
2019-03-21T00:37:38.718Z,20.92
2019-03-21T00:40:19.931Z,22.45
2019-03-21T00:42:50.379Z,23.80
2019-03-21T00:45:20.663Z,19.07
2019-03-21T00:47:51.264Z,18.48
2019-03-21T00:50:24.453Z,21.42
2019-03-21T00:52:56.273Z,22.00
2019-03-21T00:55:29.673Z,25.90
2019-03-21T00:57:59.948Z,22.93
2019-03-21T01:00:54.291Z,18.15
2019-03-21T01:03:24.529Z,21.17
2019-03-21T01:05:54.779Z,16.45
2019-03-21T01:08:25.386Z,21.15
2019-03-21T01:10:55.657Z,20.77
2019-03-21T01:13:30.795Z,19.65
2019-03-21T01:16:01.066Z,23.00
2019-03-21T01:18:31.303Z,20.57
2019-03-21T01:21:01.738Z,24.20
2019-03-21T01:23:32.309Z,23.80
2019-03-21T01:26:08.110Z,22.62
2019-03-21T01:28:38.852Z,26.20
2019-03-21T01:31:09.498Z,21.33
2019-03-21T01:33:40.119Z,18.15
2019-03-21T01:36:10.775Z,22.90
2019-03-21T01:38:42.462Z,22.22
2019-03-21T01:41:15.322Z,28.77
2019-03-21T01:43:45.535Z,23.12
2019-03-21T01:46:24.670Z,18.05
2019-03-21T01:48:55.250Z,23.42
2019-03-21T01:51:25.563Z,21.80
2019-03-21T01:53:56.397Z,24.72
2019-03-21T01:56:28.566Z,25.48
2019-03-21T01:58:59.187Z,21.48
2019-03-21T02:01:29.523Z,26.33
2019-03-21T02:03:59.737Z,24.85
2019-03-21T02:06:30.002Z,26.37
2019-03-21T02:09:00.206Z,26.68
2019-03-21T02:11:32.342Z,24.50
2019-03-21T02:14:03.073Z,23.60
2019-03-21T02:16:33.703Z,30.15
2019-03-21T02:19:04.358Z,24.45
2019-03-21T02:21:34.642Z,23.32
2019-03-21T02:24:05.522Z,28.83
2019-03-21T02:26:36.081Z,24.15
2019-03-21T02:29:06.738Z,28.90
2019-03-21T02:31:37.023Z,26.90
2019-03-21T02:34:07.683Z,30.20
2019-03-21T02:36:38.276Z,24.02
2019-03-21T02:39:08.474Z,26.52
2019-03-21T02:41:38.729Z,22.45
2019-03-21T02:44:08.959Z,21.70
2019-03-21T02:46:39.175Z,32.17
2019-03-21T02:49:09.742Z,24.45
2019-03-21T02:51:40.417Z,27.07
2019-03-21T02:54:10.774Z,30.12
2019-03-21T02:56:41.020Z,30.85
2019-03-21T02:59:11.233Z,29.07
2019-03-21T03:01:41.457Z,29.07
2019-03-21T03:04:12.061Z,29.90
2019-03-21T03:06:42.372Z,25.25
2019-03-21T03:09:12.693Z,25.50
2019-03-21T03:11:43.162Z,29.45
2019-03-21T03:14:13.723Z,27.95
2019-03-21T03:16:44.103Z,26.35
2019-03-21T03:19:14.666Z,28.50
2019-03-21T03:21:44.976Z,29.05
2019-03-21T03:24:15.621Z,30.00
2019-03-21T03:26:46.883Z,30.68
2019-03-21T03:29:17.116Z,29.42
2019-03-21T03:31:47.352Z,28.07
2019-03-21T03:34:17.935Z,28.07
2019-03-21T03:36:48.211Z,31.50
2019-03-21T03:39:18.441Z,29.72
2019-03-21T03:41:48.654Z,32.05
2019-03-21T03:44:19.250Z,29.67
2019-03-21T03:46:49.537Z,26.87
2019-03-21T03:49:19.754Z,33.90
2019-03-21T03:51:49.964Z,30.65
2019-03-21T03:54:20.442Z,32.30
2019-03-21T03:56:50.888Z,29.67
2019-03-21T03:59:21.138Z,32.08
2019-03-21T04:01:52.189Z,31.27
2019-03-21T04:04:22.720Z,31.40
2019-03-21T04:06:52.929Z,30.57
2019-03-21T04:09:23.241Z,32.60
2019-03-21T04:11:53.542Z,30.32
2019-03-21T04:14:23.755Z,31.12
2019-03-21T04:16:54.322Z,33.85
2019-03-21T04:19:24.951Z,29.30
2019-03-21T04:21:55.253Z,29.42
2019-03-21T04:24:26.539Z,36.48
2019-03-21T04:26:56.775Z,34.63
2019-03-21T04:29:27.055Z,33.55
2019-03-21T04:31:57.662Z,30.02
2019-03-21T04:34:28.385Z,30.27
2019-03-21T04:36:59.087Z,33.73
2019-03-21T04:39:29.372Z,36.00
2019-03-21T04:41:59.600Z,33.80
2019-03-21T04:44:30.167Z,31.97
2019-03-21T04:47:00.541Z,40.85
2019-03-21T04:49:30.780Z,29.82
2019-03-21T04:52:02.414Z,34.35
2019-03-21T04:54:32.700Z,35.63
2019-03-21T04:57:02.913Z,34.10
2019-03-21T04:59:33.157Z,36.93
2019-03-21T05:02:03.371Z,30.08
2019-03-21T05:04:33.610Z,31.77
2019-03-21T05:07:04.193Z,37.45
2019-03-21T05:09:34.519Z,33.63
2019-03-21T05:12:04.796Z,28.90
2019-03-21T05:14:35.414Z,29.20
2019-03-21T05:17:05.726Z,32.35
2019-03-21T05:19:35.940Z,35.05
2019-03-21T05:22:06.522Z,40.65
2019-03-21T05:24:36.839Z,40.23
2019-03-21T05:27:07.428Z,35.65
2019-03-21T05:29:38.104Z,36.30
2019-03-21T05:32:08.384Z,34.03
2019-03-21T05:34:38.962Z,36.03
2019-03-21T05:37:09.595Z,36.23
2019-03-21T05:39:40.247Z,38.58
2019-03-21T05:42:12.707Z,37.93
2019-03-21T05:44:43.710Z,36.05
2019-03-21T05:47:14.510Z,35.58
2019-03-21T05:49:45.331Z,41.65
2019-03-21T05:52:15.653Z,39.38
2019-03-21T05:54:45.868Z,45.08
2019-03-21T05:57:16.468Z,36.90
2019-03-21T05:59:46.746Z,35.00
2019-03-21T06:02:17.026Z,33.15
2019-03-21T06:04:47.614Z,35.35
2019-03-21T06:07:23.233Z,37.05
2019-03-21T06:09:53.916Z,37.40
2019-03-21T06:12:24.208Z,32.95
2019-03-21T06:14:57.492Z,37.00
2019-03-21T06:17:28.693Z,35.73
2019-03-21T06:20:04.091Z,41.60
2019-03-21T06:22:47.619Z,39.65
2019-03-21T06:25:28.417Z,31.62
2019-03-21T06:27:58.693Z,36.85
2019-03-21T06:30:28.927Z,37.25
2019-03-21T06:32:59.141Z,31.45
2019-03-21T06:35:29.371Z,38.45
2019-03-21T06:37:59.982Z,33.30
2019-03-21T06:40:30.780Z,42.50
2019-03-21T06:43:01.061Z,33.88
2019-03-21T06:45:31.634Z,37.65
2019-03-21T06:48:02.317Z,35.13
2019-03-21T06:50:32.591Z,39.67
2019-03-21T06:53:03.455Z,37.63
2019-03-21T06:55:35.177Z,38.65
2019-03-21T06:58:06.411Z,36.75
2019-03-21T07:00:38.707Z,45.98
2019-03-21T07:03:10.424Z,41.60
2019-03-21T07:05:40.658Z,38.08
2019-03-21T07:08:11.385Z,36.55
2019-03-21T07:10:42.190Z,42.27
2019-03-21T07:13:13.473Z,40.78
2019-03-21T07:15:43.738Z,36.40
2019-03-21T07:18:13.952Z,41.60
2019-03-21T07:20:44.256Z,34.80
2019-03-21T07:23:14.796Z,38.67
2019-03-21T07:25:45.439Z,45.63
2019-03-21T07:28:16.140Z,40.12
2019-03-21T07:30:46.563Z,41.02
2019-03-21T07:33:16.841Z,48.20
2019-03-21T07:35:47.275Z,40.43
2019-03-21T07:38:18.868Z,44.77
2019-03-21T07:40:49.202Z,44.95
2019-03-21T07:43:22.283Z,40.25
2019-03-21T07:45:52.459Z,36.98
2019-03-21T07:48:22.713Z,34.35
2019-03-21T07:50:53.329Z,39.18
2019-03-21T07:53:23.603Z,37.55
2019-03-21T07:55:56.588Z,45.35
2019-03-21T07:58:27.354Z,34.90
2019-03-21T08:00:58.070Z,37.17
2019-03-21T08:03:28.727Z,46.23
2019-03-21T08:06:06.785Z,43.87
2019-03-21T08:08:39.912Z,41.83
2019-03-21T08:11:10.093Z,41.15
2019-03-21T08:13:40.690Z,48.68
2019-03-21T08:16:11.422Z,45.08
2019-03-21T08:18:44.783Z,37.60
2019-03-21T08:21:15.186Z,34.05
2019-03-21T08:23:46.615Z,36.75
2019-03-21T08:26:16.898Z,32.93
2019-03-21T08:28:52.468Z,31.87
2019-03-21T08:31:22.850Z,35.68
2019-03-21T08:33:54.966Z,31.10
2019-03-21T08:36:25.809Z,32.15
2019-03-21T08:38:56.482Z,27.82
2019-03-21T08:41:27.194Z,28.90
2019-03-21T08:43:57.875Z,25.48
2019-03-21T08:46:28.176Z,26.48
2019-03-21T08:48:59.314Z,26.93
2019-03-21T08:51:29.645Z,24.87
2019-03-21T08:54:02.055Z,23.45
2019-03-21T08:56:32.349Z,27.05
2019-03-21T08:59:02.954Z,25.25
2019-03-21T09:01:33.934Z,22.60
2019-03-21T09:04:04.533Z,24.85
2019-03-21T09:06:35.177Z,28.73
2019-03-21T09:09:09.112Z,24.90
2019-03-21T09:11:41.757Z,24.90
2019-03-21T09:14:12.559Z,25.97
2019-03-21T09:16:42.860Z,26.75
2019-03-21T09:19:14.895Z,26.75
2019-03-21T09:21:45.582Z,21.17
2019-03-21T09:24:16.290Z,25.95
2019-03-21T09:26:46.704Z,23.67
2019-03-21T09:29:18.583Z,24.30
2019-03-21T09:31:49.857Z,24.82
2019-03-21T09:34:23.119Z,30.08
2019-03-21T09:36:53.774Z,25.00
2019-03-21T09:39:24.821Z,22.27
2019-03-21T09:41:55.615Z,25.15
2019-03-21T09:44:31.415Z,24.77
2019-03-21T09:47:06.100Z,22.37
2019-03-21T09:49:40.974Z,19.80
2019-03-21T09:52:13.111Z,18.92
2019-03-21T09:54:43.447Z,20.48
2019-03-21T09:57:14.155Z,16.12
2019-03-21T09:59:50.966Z,16.27
2019-03-21T10:02:22.737Z,20.15
2019-03-21T10:04:53.939Z,17.57
2019-03-21T10:07:26.090Z,21.25
2019-03-21T10:09:56.330Z,23.05
2019-03-21T10:12:26.618Z,40.30
2019-03-21T10:14:57.224Z,23.27
2019-03-21T10:17:28.788Z,26.30
2019-03-21T10:19:59.799Z,15.72
2019-03-21T10:22:34.722Z,16.97
2019-03-21T10:25:07.661Z,16.65
2019-03-21T10:27:37.963Z,16.50
2019-03-21T10:30:18.716Z,16.50
2019-03-21T10:32:49.877Z,14.50
2019-03-21T10:35:22.742Z,18.02
2019-03-21T10:37:53.435Z,19.73
2019-03-21T10:40:23.816Z,19.35
2019-03-21T10:42:54.413Z,17.50
2019-03-21T10:45:24.719Z,19.02
2019-03-21T10:47:55.255Z,15.90
2019-03-21T10:50:41.030Z,32.15
2019-03-21T10:53:11.354Z,17.77
2019-03-21T10:55:41.689Z,16.95
2019-03-21T10:58:12.343Z,17.57
2019-03-21T11:00:43.143Z,13.75
2019-03-21T11:03:14.365Z,13.95
2019-03-21T11:05:44.623Z,25.80
2019-03-21T11:08:15.005Z,14.78
2019-03-21T11:10:47.245Z,16.97
2019-03-21T11:13:18.703Z,14.95
2019-03-21T11:15:49.403Z,12.93
2019-03-21T11:18:20.069Z,13.68
2019-03-21T11:20:50.878Z,12.35
2019-03-21T11:23:21.769Z,14.28
2019-03-21T11:25:53.201Z,16.12
2019-03-21T11:28:23.859Z,12.13
2019-03-21T11:30:56.417Z,13.38
2019-03-21T11:33:26.696Z,15.63
2019-03-21T11:35:56.956Z,21.90
2019-03-21T11:38:28.193Z,20.60
2019-03-21T11:40:58.789Z,15.40
2019-03-21T11:43:29.304Z,12.15
2019-03-21T11:46:02.457Z,19.12
2019-03-21T11:48:32.724Z,19.00
2019-03-21T11:51:03.285Z,19.75
2019-03-21T11:53:34.045Z,14.85
2019-03-21T11:56:04.374Z,15.68
2019-03-21T11:58:34.647Z,14.98
2019-03-21T12:01:05.331Z,12.93
2019-03-21T12:03:35.678Z,16.25
2019-03-21T12:06:05.980Z,13.83
2019-03-21T12:08:36.204Z,22.40
2019-03-21T12:11:06.534Z,15.10
2019-03-21T12:13:37.093Z,17.50
2019-03-21T12:16:07.343Z,12.93
2019-03-21T12:18:37.574Z,12.98
2019-03-21T12:21:07.869Z,14.28
2019-03-21T12:23:38.412Z,16.85
2019-03-21T12:26:09.105Z,17.92
2019-03-21T12:28:39.449Z,19.70
2019-03-21T12:31:09.867Z,18.48
2019-03-21T12:33:40.509Z,20.15
2019-03-21T12:36:11.168Z,17.42
2019-03-21T12:38:41.574Z,17.27
2019-03-21T12:41:16.440Z,19.80
2019-03-21T12:43:48.645Z,21.05
2019-03-21T12:46:18.926Z,17.48
2019-03-21T12:48:49.529Z,16.02
2019-03-21T12:51:20.210Z,15.32
2019-03-21T12:53:50.941Z,18.85
2019-03-21T12:56:23.310Z,18.02
2019-03-21T12:58:53.902Z,12.90
2019-03-21T13:01:24.404Z,14.47
2019-03-21T13:03:54.760Z,12.10
2019-03-21T13:06:25.086Z,12.07
2019-03-21T13:08:55.662Z,19.42
2019-03-21T13:11:26.334Z,23.67
2019-03-21T13:13:56.984Z,19.80
2019-03-21T13:16:27.487Z,17.35
2019-03-21T13:18:57.818Z,12.73
2019-03-21T13:21:28.139Z,16.73
2019-03-21T13:23:58.472Z,18.67
2019-03-21T13:26:29.286Z,13.40
2019-03-21T13:29:01.181Z,16.70
2019-03-21T13:31:31.758Z,13.55
2019-03-21T13:34:02.510Z,16.97
2019-03-21T13:36:32.960Z,26.40
2019-03-21T13:39:04.366Z,13.72
2019-03-21T13:41:36.374Z,10.40
2019-03-21T13:44:10.003Z,13.62
2019-03-21T13:46:40.371Z,21.25
2019-03-21T13:49:11.155Z,11.10
2019-03-21T13:51:41.955Z,11.50
2019-03-21T13:54:12.740Z,13.22
2019-03-21T13:56:43.257Z,14.45
2019-03-21T13:59:14.592Z,12.82
2019-03-21T14:01:45.263Z,18.85
2019-03-21T14:04:16.026Z,15.80
2019-03-21T14:06:46.858Z,14.40
2019-03-21T14:09:20.247Z,15.28
2019-03-21T14:11:50.381Z,14.33
2019-03-21T14:14:20.964Z,16.55
2019-03-21T14:16:53.083Z,14.68
2019-03-21T14:19:23.650Z,20.45
2019-03-21T14:21:54.449Z,11.68
2019-03-21T14:24:24.925Z,12.50
2019-03-21T14:26:55.232Z,15.03
2019-03-21T14:29:25.617Z,16.37
2019-03-21T14:31:55.872Z,14.90
2019-03-21T14:34:26.153Z,14.45
2019-03-21T14:36:56.391Z,15.15
2019-03-21T14:39:26.874Z,9.85
2019-03-21T14:41:57.600Z,19.57
2019-03-21T14:44:28.403Z,22.58
2019-03-21T14:46:58.862Z,22.42
2019-03-21T14:49:30.809Z,15.72
2019-03-21T14:52:01.116Z,12.98
2019-03-21T14:54:31.332Z,15.43
2019-03-21T14:57:01.922Z,11.20
2019-03-21T14:59:32.626Z,11.93
2019-03-21T15:02:03.030Z,16.10
2019-03-21T15:04:33.433Z,12.37
2019-03-21T15:07:04.162Z,15.43
2019-03-21T15:09:34.944Z,15.93
2019-03-21T15:12:05.711Z,34.63
2019-03-21T15:14:36.670Z,26.50
2019-03-21T15:17:07.104Z,13.98
2019-03-21T15:19:39.370Z,23.47
2019-03-21T15:22:10.203Z,18.98
2019-03-21T15:24:42.281Z,19.50
2019-03-21T15:27:13.689Z,12.15
2019-03-21T15:29:44.825Z,23.27
2019-03-21T15:32:15.158Z,14.95
2019-03-21T15:34:45.732Z,21.30
2019-03-21T15:37:16.028Z,15.13
2019-03-21T15:39:46.606Z,15.78
2019-03-21T15:42:16.959Z,21.82
2019-03-21T15:44:47.519Z,16.05
2019-03-21T15:47:17.836Z,16.25
2019-03-21T15:49:48.637Z,14.18
2019-03-21T15:52:18.962Z,14.50
2019-03-21T15:54:49.526Z,17.52
2019-03-21T15:57:19.850Z,16.97
2019-03-21T15:59:52.457Z,16.35
2019-03-21T16:02:22.357Z,21.93
2019-03-21T16:04:52.789Z,15.15
2019-03-21T16:07:23.010Z,19.17
2019-03-21T16:09:53.228Z,11.53
2019-03-21T16:12:23.908Z,13.03
2019-03-21T16:14:54.653Z,9.25
2019-03-21T16:17:24.940Z,13.70
2019-03-21T16:19:55.573Z,20.15
2019-03-21T16:22:26.249Z,15.93
2019-03-21T16:24:56.546Z,13.30
2019-03-21T16:27:27.538Z,12.50
2019-03-21T16:30:00.780Z,22.05
2019-03-21T16:32:31.158Z,13.75
2019-03-21T16:35:01.465Z,14.40
2019-03-21T16:37:32.066Z,15.72
2019-03-21T16:40:02.707Z,13.22
2019-03-21T16:42:33.347Z,12.55
2019-03-21T16:45:05.630Z,13.53
2019-03-21T16:47:36.252Z,14.63
2019-03-21T16:50:15.586Z,17.70
2019-03-21T16:52:48.722Z,17.37
2019-03-21T16:55:19.379Z,18.30
2019-03-21T16:57:49.850Z,16.20
2019-03-21T17:00:22.131Z,16.57
2019-03-21T17:02:52.974Z,19.75
2019-03-21T17:05:23.346Z,16.10
2019-03-21T17:07:53.646Z,20.27
2019-03-21T17:10:23.995Z,14.90
2019-03-21T17:12:54.232Z,16.10
2019-03-21T17:15:26.054Z,17.65
2019-03-21T17:17:58.451Z,18.48
2019-03-21T17:20:28.934Z,19.23
2019-03-21T17:23:00.568Z,16.95
2019-03-21T17:25:31.557Z,19.12
2019-03-21T17:28:01.997Z,26.62
2019-03-21T17:30:32.578Z,23.70
2019-03-21T17:33:02.930Z,25.62
2019-03-21T17:35:36.331Z,35.95
2019-03-21T17:38:07.003Z,37.90
2019-03-21T17:40:37.662Z,38.75
2019-03-21T17:43:07.982Z,31.82
2019-03-21T17:45:38.229Z,28.85
2019-03-21T17:48:08.449Z,28.50
2019-03-21T17:50:38.750Z,31.20
2019-03-21T17:53:09.276Z,37.17
2019-03-21T17:55:39.766Z,33.88
2019-03-21T17:58:11.534Z,31.15
2019-03-21T18:00:42.192Z,31.87
2019-03-21T18:03:12.871Z,32.42
2019-03-21T18:05:43.108Z,34.90
2019-03-21T18:08:13.716Z,30.10
2019-03-21T18:10:44.494Z,39.13
2019-03-21T18:13:16.332Z,38.80
2019-03-21T18:15:47.067Z,30.35
2019-03-21T18:18:17.806Z,37.78
2019-03-21T18:20:48.457Z,42.25
2019-03-21T18:23:19.151Z,43.65
2019-03-21T18:25:49.994Z,36.48
2019-03-21T18:28:20.892Z,35.68
2019-03-21T18:30:51.281Z,37.60
2019-03-21T18:33:21.891Z,36.03
2019-03-21T18:35:52.477Z,38.13
2019-03-21T18:38:24.316Z,39.40
2019-03-21T18:40:56.546Z,37.78
2019-03-21T18:43:27.296Z,36.15
2019-03-21T18:45:57.590Z,36.45
2019-03-21T18:48:27.821Z,37.17
2019-03-21T18:50:58.468Z,36.83
2019-03-21T18:53:30.060Z,35.08
2019-03-21T18:56:00.772Z,38.02
2019-03-21T18:58:32.190Z,38.67
2019-03-21T19:01:02.764Z,41.25
2019-03-21T19:03:33.474Z,40.48
2019-03-21T19:06:05.811Z,39.20
2019-03-21T19:08:36.112Z,37.40
2019-03-21T19:11:07.945Z,34.98
2019-03-21T19:13:38.527Z,33.28
2019-03-21T19:16:10.431Z,35.88
2019-03-21T19:18:40.948Z,43.25
2019-03-21T19:21:11.267Z,40.80
2019-03-21T19:23:41.549Z,46.15
2019-03-21T19:26:11.792Z,41.73
2019-03-21T19:28:42.058Z,41.42
2019-03-21T19:31:12.316Z,52.40
2019-03-21T19:33:42.894Z,51.73
2019-03-21T19:36:13.208Z,51.08
2019-03-21T19:38:43.546Z,47.45
2019-03-21T19:41:14.198Z,49.25
2019-03-21T19:43:44.908Z,46.42
2019-03-21T19:46:18.094Z,49.83
2019-03-21T19:48:50.400Z,45.67
2019-03-21T19:51:20.684Z,45.30
2019-03-21T19:53:50.977Z,47.35
2019-03-21T19:56:21.245Z,45.63
2019-03-21T19:58:51.825Z,41.92
2019-03-21T20:01:22.210Z,44.15
2019-03-21T20:03:52.454Z,42.25
2019-03-21T20:06:22.677Z,45.33
2019-03-21T20:08:52.906Z,41.73
2019-03-21T20:11:24.752Z,46.90
2019-03-21T20:13:55.502Z,44.80
2019-03-21T20:16:25.887Z,46.37
2019-03-21T20:18:56.545Z,45.73
2019-03-21T20:21:27.099Z,44.50
2019-03-21T20:23:57.323Z,44.58
2019-03-21T20:26:27.784Z,47.67
2019-03-21T20:28:58.255Z,46.50
2019-03-21T20:31:28.535Z,45.25
2019-03-21T20:33:59.410Z,43.70
2019-03-21T20:36:29.702Z,45.80
2019-03-21T20:38:59.982Z,45.10
2019-03-21T20:41:30.418Z,45.50
2019-03-21T20:44:01.277Z,53.52
2019-03-21T20:46:31.595Z,47.78
2019-03-21T20:49:01.826Z,47.35
2019-03-21T20:51:33.847Z,47.38
2019-03-21T20:54:07.397Z,45.58
2019-03-21T20:56:36.654Z,48.08
2019-03-21T20:59:07.705Z,47.20
2019-03-21T21:01:38.244Z,46.48
2019-03-21T21:04:12.771Z,48.58
2019-03-21T21:06:51.708Z,53.55
2019-03-21T21:09:24.031Z,44.75
2019-03-21T21:11:54.796Z,54.05
2019-03-21T21:14:25.735Z,52.10
2019-03-21T21:16:56.582Z,48.05
2019-03-21T21:19:28.249Z,44.23
2019-03-21T21:22:02.326Z,51.55
2019-03-21T21:24:32.924Z,48.25
2019-03-21T21:27:04.695Z,46.83
2019-03-21T21:29:36.828Z,50.40
2019-03-21T21:32:10.286Z,44.58
2019-03-21T21:34:45.978Z,45.70
2019-03-21T21:37:16.633Z,47.30
2019-03-21T21:39:47.410Z,42.83
2019-03-21T21:42:20.325Z,47.80
2019-03-21T21:44:50.927Z,47.27
2019-03-21T21:47:21.451Z,45.85
2019-03-21T21:49:52.492Z,47.93
2019-03-21T21:52:23.669Z,47.78
2019-03-21T21:54:54.485Z,47.88
2019-03-21T21:57:24.786Z,47.00
2019-03-21T21:59:57.969Z,52.17
2019-03-21T22:02:28.305Z,48.15
2019-03-21T22:05:00.424Z,45.33
2019-03-21T22:07:31.019Z,50.30
2019-03-21T22:10:01.330Z,45.65
2019-03-21T22:12:31.786Z,46.80
2019-03-21T22:15:02.390Z,48.60
2019-03-21T22:17:32.752Z,51.25
2019-03-21T22:20:03.718Z,47.30
2019-03-21T22:22:34.502Z,47.00
2019-03-21T22:25:08.401Z,47.73
2019-03-21T22:27:38.696Z,46.80
2019-03-21T22:30:15.110Z,46.85
2019-03-21T22:32:47.371Z,48.48
2019-03-21T22:35:18.040Z,45.12
2019-03-21T22:37:48.324Z,44.73
2019-03-21T22:40:22.030Z,50.10
2019-03-21T22:42:52.268Z,43.65
2019-03-21T22:45:22.921Z,46.98
2019-03-21T22:47:53.198Z,45.30
2019-03-21T22:50:25.295Z,50.00
2019-03-21T22:52:56.831Z,42.67
2019-03-21T22:55:28.972Z,44.08
2019-03-21T22:57:59.299Z,44.35
2019-03-21T23:00:35.464Z,40.83
2019-03-21T23:03:07.001Z,45.28
2019-03-21T23:05:37.777Z,44.13
2019-03-21T23:08:08.521Z,45.40
2019-03-21T23:10:38.825Z,42.08
2019-03-21T23:13:09.511Z,44.77
2019-03-21T23:15:39.844Z,46.58
2019-03-21T23:18:10.528Z,45.00
2019-03-21T23:20:40.996Z,46.88
2019-03-21T23:23:11.584Z,42.98
2019-03-21T23:25:42.243Z,45.10
2019-03-21T23:28:12.909Z,44.08
2019-03-21T23:30:43.609Z,43.78
2019-03-21T23:33:14.380Z,46.80
2019-03-21T23:35:44.764Z,45.65
2019-03-21T23:38:16.320Z,40.67
2019-03-21T23:40:47.056Z,48.63
2019-03-21T23:43:17.717Z,41.75
2019-03-21T23:45:48.389Z,43.90
2019-03-21T23:48:18.733Z,45.30
2019-03-21T23:50:49.323Z,45.60
2019-03-21T23:53:19.788Z,49.38
2019-03-21T23:55:50.415Z,47.85
2019-03-21T23:58:22.674Z,45.75
